createdAt,value
2023-05-05T00:01:04.336Z,102022.31
2023-05-05T00:03:34.554Z,102027.91
2023-05-05T00:06:03.058Z,102029.91
2023-05-05T00:08:31.765Z,102024.59
2023-05-05T00:11:00.420Z,102023.97
2023-05-05T00:13:28.988Z,102030.34
2023-05-05T00:15:57.451Z,102029.53
2023-05-05T00:18:28.504Z,102031.88
2023-05-05T00:20:56.779Z,102036.56
2023-05-05T00:23:25.283Z,102028.03
2023-05-05T00:25:53.870Z,102029.84
2023-05-05T00:28:22.329Z,102030.63
2023-05-05T00:30:50.923Z,102027.34
2023-05-05T00:33:19.478Z,102038.97
2023-05-05T00:35:49.521Z,102029.94
2023-05-05T00:38:18.235Z,102032.50
2023-05-05T00:40:46.747Z,102028.97
2023-05-05T00:43:15.194Z,102028.19
2023-05-05T00:45:47.905Z,102030.78
2023-05-05T00:48:19.039Z,102025.56
2023-05-05T00:50:49.641Z,102033.44
2023-05-05T00:53:19.251Z,102029.16
2023-05-05T00:55:48.146Z,102025.66
2023-05-05T00:58:16.800Z,102032.78
2023-05-05T01:00:45.587Z,102039.13
2023-05-05T01:03:15.592Z,102038.19
2023-05-05T01:05:55.026Z,102036.38
2023-05-05T01:08:35.156Z,102035.53
2023-05-05T01:11:09.245Z,102036.38
2023-05-05T01:13:49.703Z,102044.16
2023-05-05T01:16:25.177Z,102046.88
2023-05-05T01:18:59.722Z,102039.78
2023-05-05T01:21:33.365Z,102039.97
2023-05-05T01:24:20.775Z,102036.38
2023-05-05T01:26:59.555Z,102047.03
2023-05-05T01:29:46.159Z,102049.59
2023-05-05T01:32:17.444Z,102053.94
2023-05-05T01:34:54.469Z,102046.09
2023-05-05T01:37:26.039Z,102054.50
2023-05-05T01:39:59.014Z,102042.94
2023-05-05T01:42:29.270Z,102043.78
2023-05-05T01:44:58.586Z,102047.28
2023-05-05T01:47:29.996Z,102047.34
2023-05-05T01:49:59.587Z,102044.78
2023-05-05T01:52:29.540Z,102051.91
2023-05-05T01:55:00.209Z,102058.22
2023-05-05T01:57:33.288Z,102051.00
2023-05-05T02:00:06.421Z,102055.66
2023-05-05T02:02:46.752Z,102050.69
2023-05-05T02:05:17.095Z,102053.09
2023-05-05T02:07:47.017Z,102057.38
2023-05-05T02:10:16.469Z,102052.97
2023-05-05T02:12:47.992Z,102056.44
2023-05-05T02:15:17.897Z,102052.00
2023-05-05T02:17:49.210Z,102055.34
2023-05-05T02:20:19.815Z,102050.09
2023-05-05T02:22:48.763Z,102049.28
2023-05-05T02:25:17.937Z,102049.31
2023-05-05T02:27:48.552Z,102051.22
2023-05-05T02:30:21.276Z,102063.72
2023-05-05T02:32:57.507Z,102058.00
2023-05-05T02:35:36.407Z,102054.72
2023-05-05T02:38:08.799Z,102052.31
2023-05-05T02:40:44.826Z,102056.06
2023-05-05T02:43:20.875Z,102051.47
2023-05-05T02:45:50.695Z,102050.72
2023-05-05T02:48:21.806Z,102059.50
2023-05-05T02:50:51.661Z,102047.19
2023-05-05T02:53:32.139Z,102050.53
2023-05-05T02:56:09.586Z,102046.00
2023-05-05T02:58:50.502Z,102054.63
2023-05-05T03:01:39.829Z,102057.28
2023-05-05T03:04:18.847Z,102055.34
2023-05-05T03:06:58.953Z,102059.66
2023-05-05T03:09:34.698Z,102062.28
2023-05-05T03:12:05.735Z,102056.00
2023-05-05T03:14:46.541Z,102062.00
2023-05-05T03:17:19.886Z,102062.72
2023-05-05T03:19:50.925Z,102063.66
2023-05-05T03:22:21.390Z,102062.69
2023-05-05T03:24:52.028Z,102058.16
2023-05-05T03:27:24.722Z,102052.09
2023-05-05T03:29:53.802Z,102055.19
2023-05-05T03:32:24.369Z,102052.31
2023-05-05T03:34:57.599Z,102062.63
2023-05-05T03:37:31.753Z,102055.22
2023-05-05T03:40:01.222Z,102067.34
2023-05-05T03:42:30.211Z,102065.38
2023-05-05T03:44:59.367Z,102066.03
2023-05-05T03:47:28.747Z,102065.78
2023-05-05T03:50:00.946Z,102059.47
2023-05-05T03:52:30.607Z,102065.53
2023-05-05T03:55:00.483Z,102065.38
2023-05-05T03:57:29.488Z,102065.16
2023-05-05T03:59:58.112Z,102062.38
2023-05-05T04:02:28.171Z,102062.09
2023-05-05T04:04:56.929Z,102061.84
2023-05-05T04:07:27.280Z,102059.94
2023-05-05T04:09:56.404Z,102069.63
2023-05-05T04:12:25.154Z,102064.94
2023-05-05T04:14:54.169Z,102070.38
2023-05-05T04:17:23.654Z,102064.91
2023-05-05T04:19:52.510Z,102067.22
2023-05-05T04:22:21.441Z,102076.72
2023-05-05T04:24:52.069Z,102073.91
2023-05-05T04:27:21.144Z,102070.06
2023-05-05T04:29:50.749Z,102075.19
2023-05-05T04:32:19.627Z,102075.88
2023-05-05T04:34:48.456Z,102091.47
2023-05-05T04:37:17.801Z,102084.44
2023-05-05T04:39:46.696Z,102084.00
2023-05-05T04:42:17.294Z,102080.78
2023-05-05T04:44:46.087Z,102082.41
2023-05-05T04:47:14.975Z,102080.56
2023-05-05T04:49:45.215Z,102084.84
2023-05-05T04:52:14.255Z,102090.78
2023-05-05T04:54:42.985Z,102087.78
2023-05-05T04:57:11.792Z,102098.03
2023-05-05T04:59:41.872Z,102094.38
2023-05-05T05:02:10.525Z,102096.06
2023-05-05T05:04:39.242Z,102093.06
2023-05-05T05:07:07.789Z,102101.81
2023-05-05T05:09:37.173Z,102108.22
2023-05-05T05:12:08.127Z,102099.25
2023-05-05T05:14:38.988Z,102105.16
2023-05-05T05:17:09.357Z,102103.75
2023-05-05T05:19:38.094Z,102105.22
2023-05-05T05:22:06.963Z,102104.78
2023-05-05T05:24:39.456Z,102096.66
2023-05-05T05:27:10.320Z,102107.69
2023-05-05T05:29:41.991Z,102108.16
2023-05-05T05:32:12.268Z,102111.34
2023-05-05T05:34:41.197Z,102112.94
2023-05-05T05:37:11.362Z,102112.34
2023-05-05T05:39:42.657Z,102110.44
2023-05-05T05:42:12.601Z,102119.56
2023-05-05T05:44:41.509Z,102123.84
2023-05-05T05:47:11.595Z,102121.69
2023-05-05T05:49:40.289Z,102122.25
2023-05-05T05:52:08.941Z,102125.72
2023-05-05T05:54:37.668Z,102122.88
2023-05-05T05:57:07.084Z,102133.28
2023-05-05T05:59:35.701Z,102132.59
2023-05-05T06:02:04.826Z,102132.69
2023-05-05T06:04:36.233Z,102125.56
2023-05-05T06:07:05.126Z,102120.50
2023-05-05T06:09:33.748Z,102127.22
2023-05-05T06:12:04.026Z,102134.38
2023-05-05T06:14:33.280Z,102135.03
2023-05-05T06:17:01.818Z,102134.19
2023-05-05T06:19:31.752Z,102137.38
2023-05-05T06:22:01.981Z,102135.31
2023-05-05T06:24:32.234Z,102138.56
2023-05-05T06:27:02.551Z,102134.38
2023-05-05T06:29:31.199Z,102139.91
2023-05-05T06:32:01.189Z,102133.88
2023-05-05T06:34:29.798Z,102134.94
2023-05-05T06:36:58.259Z,102138.00
2023-05-05T06:39:28.222Z,102135.78
2023-05-05T06:41:57.425Z,102134.41
2023-05-05T06:44:26.180Z,102131.19
2023-05-05T06:46:55.611Z,102130.22
2023-05-05T06:49:24.317Z,102139.97
2023-05-05T06:51:52.935Z,102134.78
2023-05-05T06:54:21.576Z,102133.44
2023-05-05T06:56:51.626Z,102132.72
2023-05-05T06:59:20.189Z,102128.78
2023-05-05T07:01:48.948Z,102129.97
2023-05-05T07:04:17.535Z,102130.19
2023-05-05T07:06:46.268Z,102128.13
2023-05-05T07:09:17.009Z,102134.28
2023-05-05T07:11:46.112Z,102121.38
2023-05-05T07:14:16.574Z,102131.31
2023-05-05T07:16:45.372Z,102117.31
2023-05-05T07:19:13.932Z,102131.06
2023-05-05T07:21:42.831Z,102128.84
2023-05-05T07:24:11.371Z,102137.06
2023-05-05T07:26:40.233Z,102138.25
2023-05-05T07:29:08.867Z,102141.97
2023-05-05T07:31:38.944Z,102141.59
2023-05-05T07:34:07.569Z,102146.47
2023-05-05T07:36:36.111Z,102134.97
2023-05-05T07:39:05.345Z,102134.66
2023-05-05T07:41:33.911Z,102136.25
2023-05-05T07:44:02.468Z,102135.75
2023-05-05T07:46:30.918Z,102134.63
2023-05-05T07:49:00.896Z,102139.97
2023-05-05T07:51:29.902Z,102137.78
2023-05-05T07:53:58.334Z,102135.88
2023-05-05T07:56:27.013Z,102149.09
2023-05-05T07:58:55.493Z,102141.06
2023-05-05T08:01:23.989Z,102139.75
2023-05-05T08:03:52.586Z,102143.69
2023-05-05T08:06:23.671Z,102135.84
2023-05-05T08:08:53.514Z,102129.09
2023-05-05T08:11:22.330Z,102133.47
2023-05-05T08:13:50.814Z,102135.31
2023-05-05T08:16:19.508Z,102139.34
2023-05-05T08:18:48.054Z,102136.16
2023-05-05T08:21:16.552Z,102147.78
2023-05-05T08:23:46.472Z,102140.25
2023-05-05T08:26:15.016Z,102145.88
2023-05-05T08:28:43.494Z,102149.22
2023-05-05T08:31:12.224Z,102147.69
2023-05-05T08:33:40.755Z,102133.50
2023-05-05T08:36:09.538Z,102132.34
2023-05-05T08:38:38.075Z,102130.78
2023-05-05T08:41:11.263Z,102131.66
2023-05-05T08:43:39.776Z,102134.25
2023-05-05T08:46:11.649Z,102133.03
2023-05-05T08:48:42.572Z,102132.25
2023-05-05T08:51:15.276Z,102142.78
2023-05-05T08:53:50.704Z,102140.03
2023-05-05T08:56:22.160Z,102153.41
2023-05-05T08:58:52.291Z,102154.66
2023-05-05T09:01:21.413Z,102163.38
2023-05-05T09:03:50.137Z,102154.22
2023-05-05T09:06:18.668Z,102162.94
2023-05-05T09:08:47.501Z,102166.25
2023-05-05T09:11:16.079Z,102171.81
2023-05-05T09:13:50.088Z,102158.44
2023-05-05T09:16:18.754Z,102154.66
2023-05-05T09:18:47.206Z,102153.63
2023-05-05T09:21:22.577Z,102147.97
2023-05-05T09:24:09.056Z,102145.56
2023-05-05T09:26:39.531Z,102143.31
2023-05-05T09:29:09.648Z,102150.09
2023-05-05T09:31:38.839Z,102152.78
2023-05-05T09:34:19.534Z,102146.84
2023-05-05T09:36:49.166Z,102147.13
2023-05-05T09:39:19.980Z,102147.34
2023-05-05T09:41:48.715Z,102153.59
2023-05-05T09:44:18.724Z,102152.00
2023-05-05T09:46:52.501Z,102160.75
2023-05-05T09:49:25.668Z,102165.34
2023-05-05T09:51:54.989Z,102165.91
2023-05-05T09:54:27.641Z,102154.06
2023-05-05T09:56:56.932Z,102154.03
2023-05-05T09:59:26.983Z,102154.78
2023-05-05T10:02:10.803Z,102152.47
2023-05-05T10:04:39.414Z,102153.75
2023-05-05T10:07:07.912Z,102154.66
2023-05-05T10:09:36.559Z,102150.88
2023-05-05T10:12:06.922Z,102149.41
2023-05-05T10:14:37.576Z,102145.16
2023-05-05T10:17:07.177Z,102139.91
2023-05-05T10:19:37.277Z,102143.59
2023-05-05T10:22:09.619Z,102150.06
2023-05-05T10:24:41.782Z,102160.66
2023-05-05T10:27:16.677Z,102150.44
2023-05-05T10:29:53.844Z,102163.00
2023-05-05T10:32:53.979Z,102169.59
2023-05-05T10:35:23.592Z,102158.53
2023-05-05T10:37:53.732Z,102155.28
2023-05-05T10:40:23.826Z,102165.72
2023-05-05T10:42:53.106Z,102160.59
2023-05-05T10:45:23.181Z,102158.06
2023-05-05T10:47:53.442Z,102160.34
2023-05-05T10:50:30.882Z,102151.91
2023-05-05T10:53:16.264Z,102155.03
2023-05-05T10:55:53.996Z,102150.47
2023-05-05T10:58:46.942Z,102160.97
2023-05-05T11:01:33.194Z,102157.34
2023-05-05T11:04:24.283Z,102152.00
2023-05-05T11:07:27.466Z,102147.72
2023-05-05T11:09:57.550Z,102152.09
2023-05-05T11:12:26.134Z,102149.53
2023-05-05T11:15:31.762Z,102150.78
2023-05-05T11:18:04.821Z,102139.47
2023-05-05T11:21:19.243Z,102147.59
2023-05-05T11:23:52.231Z,102149.13
2023-05-05T11:26:53.103Z,102153.13
2023-05-05T11:29:21.740Z,102144.13
2023-05-05T11:32:17.006Z,102148.44
2023-05-05T11:34:52.885Z,102146.06
2023-05-05T11:37:24.657Z,102148.81
2023-05-05T11:40:12.094Z,102143.75
2023-05-05T11:42:40.936Z,102147.28
2023-05-05T11:45:22.283Z,102155.50
2023-05-05T11:47:51.373Z,102154.13
2023-05-05T11:50:23.602Z,102153.50
2023-05-05T11:52:52.200Z,102153.59
2023-05-05T11:55:24.448Z,102145.56
2023-05-05T11:57:53.023Z,102155.88
2023-05-05T12:00:21.944Z,102161.28
2023-05-05T12:02:58.460Z,102153.81
2023-05-05T12:05:28.663Z,102149.09
2023-05-05T12:08:00.528Z,102154.44
2023-05-05T12:10:29.440Z,102145.19
2023-05-05T12:12:58.385Z,102133.41
2023-05-05T12:15:31.729Z,102137.72
2023-05-05T12:18:02.783Z,102141.50
2023-05-05T12:20:35.278Z,102141.56
2023-05-05T12:23:05.278Z,102140.25
2023-05-05T12:25:38.367Z,102142.75
2023-05-05T12:28:08.552Z,102137.78
2023-05-05T12:30:37.673Z,102132.13
2023-05-05T12:33:07.874Z,102133.41
2023-05-05T12:35:38.127Z,102138.06
2023-05-05T12:38:06.908Z,102135.72
2023-05-05T12:40:48.676Z,102136.25
2023-05-05T12:43:31.341Z,102135.34
2023-05-05T12:46:04.680Z,102138.41
2023-05-05T12:48:33.844Z,102137.13
2023-05-05T12:51:18.128Z,102133.25
2023-05-05T12:53:47.699Z,102126.34
2023-05-05T12:56:32.929Z,102133.25
2023-05-05T12:59:01.768Z,102137.50
2023-05-05T13:01:30.472Z,102128.44
2023-05-05T13:04:10.418Z,102133.84
2023-05-05T13:06:41.751Z,102132.75
2023-05-05T13:09:11.236Z,102130.25
2023-05-05T13:11:40.520Z,102138.03
2023-05-05T13:14:09.684Z,102125.94
2023-05-05T13:16:38.178Z,102123.13
2023-05-05T13:19:06.780Z,102128.94
2023-05-05T13:21:35.343Z,102129.50
2023-05-05T13:24:22.906Z,102124.44
2023-05-05T13:26:54.633Z,102117.16
2023-05-05T13:29:26.089Z,102116.28
2023-05-05T13:31:57.292Z,102116.22
2023-05-05T13:34:25.755Z,102116.63
2023-05-05T13:36:54.405Z,102120.59
2023-05-05T13:39:24.467Z,102112.47
2023-05-05T13:41:52.991Z,102117.16
2023-05-05T13:44:21.509Z,102119.75
2023-05-05T13:46:50.191Z,102119.22
2023-05-05T13:49:18.871Z,102119.59
2023-05-05T13:51:47.991Z,102125.59
2023-05-05T13:54:16.447Z,102126.06
2023-05-05T13:56:46.733Z,102137.84
2023-05-05T13:59:15.208Z,102134.19
2023-05-05T14:01:43.908Z,102132.13
2023-05-05T14:04:12.429Z,102139.56
2023-05-05T14:06:41.151Z,102131.47
2023-05-05T14:09:09.494Z,102134.56
2023-05-05T14:11:37.841Z,102137.09
2023-05-05T14:14:07.580Z,102143.03
2023-05-05T14:16:36.060Z,102140.72
2023-05-05T14:19:04.419Z,102134.59
2023-05-05T14:21:33.293Z,102130.34
2023-05-05T14:24:01.689Z,102125.03
2023-05-05T14:26:30.352Z,102130.28
2023-05-05T14:28:58.825Z,102128.72
2023-05-05T14:31:28.854Z,102141.84
2023-05-05T14:33:57.484Z,102144.31
2023-05-05T14:36:27.065Z,102153.81
2023-05-05T14:38:55.522Z,102140.91
2023-05-05T14:41:24.044Z,102141.00
2023-05-05T14:43:52.450Z,102147.19
2023-05-05T14:46:21.159Z,102150.81
2023-05-05T14:48:51.067Z,102144.69
2023-05-05T14:51:19.574Z,102153.47
2023-05-05T14:53:48.048Z,102152.84
2023-05-05T14:56:16.884Z,102149.09
2023-05-05T14:58:46.150Z,102148.22
2023-05-05T15:01:15.541Z,102154.88
2023-05-05T15:03:44.060Z,102156.63
2023-05-05T15:06:14.482Z,102159.13
2023-05-05T15:08:43.007Z,102161.66
2023-05-05T15:11:11.628Z,102164.13
2023-05-05T15:13:41.666Z,102154.78
2023-05-05T15:16:10.343Z,102160.03
2023-05-05T15:18:39.004Z,102159.59
2023-05-05T15:21:07.672Z,102165.41
2023-05-05T15:23:37.679Z,102164.03
2023-05-05T15:26:06.165Z,102167.94
2023-05-05T15:28:34.910Z,102173.56
2023-05-05T15:31:03.338Z,102165.59
2023-05-05T15:33:32.262Z,102173.31
2023-05-05T15:36:00.823Z,102174.06
2023-05-05T15:38:30.356Z,102176.63
2023-05-05T15:41:00.566Z,102171.72
2023-05-05T15:43:29.186Z,102173.63
2023-05-05T15:45:57.540Z,102166.97
2023-05-05T15:48:26.167Z,102170.66
2023-05-05T15:50:54.548Z,102176.06
2023-05-05T15:53:23.211Z,102172.13
2023-05-05T15:55:52.037Z,102179.81
2023-05-05T15:58:22.102Z,102184.22
2023-05-05T16:00:50.669Z,102178.44
2023-05-05T16:03:19.329Z,102176.66
2023-05-05T16:05:48.502Z,102180.31
2023-05-05T16:08:16.907Z,102180.94
2023-05-05T16:10:45.567Z,102178.97
2023-05-05T16:13:14.244Z,102182.28
2023-05-05T16:15:44.873Z,102190.09
2023-05-05T16:18:13.497Z,102193.63
2023-05-05T16:20:41.978Z,102196.66
2023-05-05T16:23:10.599Z,102196.63
2023-05-05T16:25:39.058Z,102200.75
2023-05-05T16:28:07.669Z,102199.94
2023-05-05T16:30:36.436Z,102199.63
2023-05-05T16:33:06.939Z,102205.59
2023-05-05T16:35:36.394Z,102205.25
2023-05-05T16:38:04.917Z,102207.94
2023-05-05T16:40:33.450Z,102204.84
2023-05-05T16:43:02.000Z,102216.19
2023-05-05T16:45:30.669Z,102207.91
2023-05-05T16:47:59.334Z,102215.09
2023-05-05T16:50:29.517Z,102208.91
2023-05-05T16:52:58.016Z,102211.59
2023-05-05T16:55:26.543Z,102207.34
2023-05-05T16:57:55.043Z,102213.97
2023-05-05T17:00:23.799Z,102221.19
2023-05-05T17:02:52.396Z,102219.00
2023-05-05T17:05:21.682Z,102213.88
2023-05-05T17:07:52.403Z,102224.59
2023-05-05T17:10:20.998Z,102218.81
2023-05-05T17:12:49.431Z,102218.31
2023-05-05T17:15:18.113Z,102227.50
2023-05-05T17:17:46.609Z,102229.22
2023-05-05T17:20:15.345Z,102233.41
2023-05-05T17:22:43.925Z,102232.91
2023-05-05T17:25:14.072Z,102239.81
2023-05-05T17:27:42.649Z,102238.50
2023-05-05T17:30:12.072Z,102236.28
2023-05-05T17:32:43.730Z,102242.91
2023-05-05T17:35:12.662Z,102239.66
2023-05-05T17:37:41.360Z,102241.28
2023-05-05T17:40:10.656Z,102252.22
2023-05-05T17:42:40.940Z,102254.34
2023-05-05T17:45:11.167Z,102252.28
2023-05-05T17:47:40.044Z,102260.22
2023-05-05T17:50:10.949Z,102258.59
2023-05-05T17:52:40.586Z,102267.66
2023-05-05T17:55:10.335Z,102270.47
2023-05-05T17:57:40.782Z,102267.78
2023-05-05T18:00:10.616Z,102270.09
2023-05-05T18:02:42.135Z,102280.69
2023-05-05T18:05:11.759Z,102271.13
2023-05-05T18:07:40.702Z,102282.59
2023-05-05T18:10:12.019Z,102282.38
2023-05-05T18:12:42.152Z,102281.56
2023-05-05T18:15:11.768Z,102284.09
2023-05-05T18:17:41.230Z,102287.31
2023-05-05T18:20:10.927Z,102285.06
2023-05-05T18:22:39.499Z,102292.91
2023-05-05T18:25:10.313Z,102282.25
2023-05-05T18:27:39.056Z,102285.84
2023-05-05T18:30:10.106Z,102278.03
2023-05-05T18:32:38.509Z,102279.19
2023-05-05T18:35:08.142Z,102284.94
2023-05-05T18:37:36.795Z,102283.31
2023-05-05T18:40:06.147Z,102292.56
2023-05-05T18:42:34.710Z,102284.00
2023-05-05T18:45:03.242Z,102286.09
2023-05-05T18:47:33.899Z,102286.91
2023-05-05T18:50:02.434Z,102283.81
2023-05-05T18:52:31.145Z,102292.97
2023-05-05T18:54:59.802Z,102290.38
2023-05-05T18:57:29.255Z,102301.84
2023-05-05T18:59:57.724Z,102297.56
2023-05-05T19:02:26.173Z,102297.72
2023-05-05T19:04:56.250Z,102301.09
2023-05-05T19:07:34.295Z,102295.91
2023-05-05T19:10:05.190Z,102300.25
2023-05-05T19:12:33.730Z,102299.91
2023-05-05T19:15:02.001Z,102295.03
2023-05-05T19:17:30.432Z,102306.22
2023-05-05T19:20:00.283Z,102301.31
2023-05-05T19:22:28.822Z,102316.78
2023-05-05T19:24:57.364Z,102309.13
2023-05-05T19:27:25.807Z,102307.31
2023-05-05T19:29:54.519Z,102309.44
2023-05-05T19:32:23.138Z,102319.16
2023-05-05T19:34:54.431Z,102315.53
2023-05-05T19:37:24.361Z,102316.31
2023-05-05T19:39:52.795Z,102310.69
2023-05-05T19:42:21.419Z,102318.81
2023-05-05T19:44:49.903Z,102311.84
2023-05-05T19:47:18.309Z,102309.44
2023-05-05T19:49:46.797Z,102315.72
2023-05-05T19:52:15.307Z,102315.59
2023-05-05T19:54:45.301Z,102325.13
2023-05-05T19:57:13.901Z,102321.13
2023-05-05T19:59:43.083Z,102323.66
2023-05-05T20:02:12.346Z,102329.78
2023-05-05T20:04:40.792Z,102315.47
2023-05-05T20:07:09.149Z,102321.06
2023-05-05T20:09:38.140Z,102324.84
2023-05-05T20:12:08.892Z,102323.25
2023-05-05T20:14:37.544Z,102317.44
2023-05-05T20:17:05.982Z,102328.56
2023-05-05T20:19:34.564Z,102323.03
2023-05-05T20:22:03.055Z,102327.81
2023-05-05T20:24:31.722Z,102328.34
2023-05-05T20:27:00.171Z,102328.03
2023-05-05T20:29:30.128Z,102327.50
2023-05-05T20:31:58.813Z,102328.88
2023-05-05T20:34:27.907Z,102323.56
2023-05-05T20:36:56.698Z,102322.81
2023-05-05T20:39:25.735Z,102326.56
2023-05-05T20:41:54.154Z,102319.06
2023-05-05T20:44:22.694Z,102329.00
2023-05-05T20:46:52.711Z,102323.63
2023-05-05T20:49:21.303Z,102326.16
2023-05-05T20:51:49.843Z,102325.38
2023-05-05T20:54:18.359Z,102333.28
2023-05-05T20:56:46.896Z,102328.78
2023-05-05T20:59:15.406Z,102327.75
2023-05-05T21:01:44.355Z,102326.66
2023-05-05T21:04:15.893Z,102327.44
2023-05-05T21:06:44.497Z,102327.66
2023-05-05T21:09:13.087Z,102331.31
2023-05-05T21:11:41.650Z,102330.16
2023-05-05T21:14:11.543Z,102332.94
2023-05-05T21:16:40.243Z,102331.00
2023-05-05T21:19:08.826Z,102326.97
2023-05-05T21:21:38.841Z,102326.66
2023-05-05T21:24:08.372Z,102326.25
2023-05-05T21:26:36.945Z,102319.84
2023-05-05T21:29:05.507Z,102319.78
2023-05-05T21:31:34.044Z,102320.06
2023-05-05T21:34:02.632Z,102318.75
2023-05-05T21:36:34.098Z,102321.69
2023-05-05T21:39:04.321Z,102326.78
2023-05-05T21:41:32.995Z,102321.09
2023-05-05T21:44:01.532Z,102328.28
2023-05-05T21:46:30.226Z,102336.34
2023-05-05T21:48:58.814Z,102334.06
2023-05-05T21:51:27.484Z,102330.50
2023-05-05T21:53:56.233Z,102338.22
2023-05-05T21:56:26.444Z,102342.53
2023-05-05T21:58:55.219Z,102336.34
2023-05-05T22:01:23.797Z,102340.84
2023-05-05T22:03:52.588Z,102344.63
2023-05-05T22:06:21.685Z,102341.28
2023-05-05T22:08:51.043Z,102346.41
2023-05-05T22:11:20.325Z,102342.03
2023-05-05T22:13:50.502Z,102342.06
2023-05-05T22:16:19.860Z,102352.63
2023-05-05T22:18:48.547Z,102351.56
2023-05-05T22:21:17.201Z,102345.38
2023-05-05T22:23:47.015Z,102345.22
2023-05-05T22:26:15.479Z,102345.28
2023-05-05T22:28:43.987Z,102348.72
2023-05-05T22:31:13.914Z,102340.91
2023-05-05T22:33:42.552Z,102341.81
2023-05-05T22:36:11.749Z,102345.38
2023-05-05T22:38:40.287Z,102346.41
2023-05-05T22:41:08.729Z,102341.38
2023-05-05T22:43:37.354Z,102357.16
2023-05-05T22:46:06.091Z,102349.63
2023-05-05T22:48:36.103Z,102350.63
2023-05-05T22:51:04.681Z,102347.91
2023-05-05T22:53:33.300Z,102356.09
2023-05-05T22:56:01.720Z,102353.38
2023-05-05T22:58:30.386Z,102355.69
2023-05-05T23:00:58.911Z,102352.22
2023-05-05T23:03:27.495Z,102354.31
2023-05-05T23:05:57.459Z,102352.81
2023-05-05T23:08:25.957Z,102364.63
2023-05-05T23:10:54.971Z,102362.19
2023-05-05T23:13:23.554Z,102362.41
2023-05-05T23:15:52.187Z,102359.97
2023-05-05T23:18:20.835Z,102362.72
2023-05-05T23:20:49.416Z,102362.22
2023-05-05T23:23:19.448Z,102358.91
2023-05-05T23:25:47.924Z,102362.41
2023-05-05T23:28:16.401Z,102360.28
2023-05-05T23:30:44.931Z,102365.53
2023-05-05T23:33:13.524Z,102365.78
2023-05-05T23:35:43.593Z,102372.88
2023-05-05T23:38:11.978Z,102359.28
2023-05-05T23:40:42.043Z,102359.91
2023-05-05T23:43:12.082Z,102367.63
2023-05-05T23:45:41.746Z,102366.16
2023-05-05T23:48:10.878Z,102375.56
2023-05-05T23:50:39.665Z,102368.53
2023-05-05T23:53:08.141Z,102364.78
2023-05-05T23:55:36.712Z,102373.03
2023-05-05T23:58:06.534Z,102372.63
